Time;durP1;ratioP1;P1;durP2;ratioP2;P2;SDS_P1;SDS_P2;PMS_P1;PMS_P2;Temp;Humidity;BMP_temperature;BMP_pressure;BME280_temperature;BME280_humidity;BME280_pressure;Samples;Min_cycle;Max_cycle;Signal;HPM_P1;HPM_P2
2023/01/02 00:01:39;;;;;;;11.20;6.20;;;;;;;6.28;100.00;99948.73;104688;1296;22582;-31
2023/01/02 00:04:05;;;;;;;8.10;5.30;;;;;;;6.33;100.00;99945.83;104616;1303;22794;-29
2023/01/02 00:06:35;;;;;;;11.20;5.10;;;;;;;6.36;100.00;99953.16;104627;1303;24429;-30
2023/01/02 00:09:01;;;;;;;9.80;5.60;;;;;;;6.40;100.00;99949.05;104675;1292;22652;-33
2023/01/02 00:11:27;;;;;;;18.70;7.40;;;;;;;6.41;100.00;99952.79;104645;1303;23002;-33
2023/01/02 00:13:53;;;;;;;9.70;6.20;;;;;;;6.46;100.00;99948.88;104678;1294;23293;-33
2023/01/02 00:16:19;;;;;;;11.20;5.80;;;;;;;6.53;100.00;99944.80;104649;1303;24295;-30
2023/01/02 00:18:45;;;;;;;12.10;6.30;;;;;;;6.52;100.00;99936.88;104577;1303;24312;-29
2023/01/02 00:21:11;;;;;;;11.10;5.00;;;;;;;6.53;100.00;99933.36;104649;1291;22801;-30
2023/01/02 00:23:36;;;;;;;12.00;6.10;;;;;;;6.58;100.00;99930.08;104719;1295;24262;-30
2023/01/02 00:26:02;;;;;;;12.80;6.20;;;;;;;6.65;100.00;99933.30;104629;1288;22670;-31
2023/01/02 00:28:28;;;;;;;14.10;5.00;;;;;;;6.72;100.00;99930.57;104747;1300;24301;-35
2023/01/02 00:30:54;;;;;;;10.10;4.70;;;;;;;6.80;100.00;99925.16;104648;1292;24322;-35
2023/01/02 00:33:19;;;;;;;10.70;5.70;;;;;;;6.86;100.00;99915.95;104678;1294;22818;-35
2023/01/02 00:35:45;;;;;;;11.00;5.80;;;;;;;6.94;100.00;99910.32;104630;1294;22807;-35
2023/01/02 00:38:11;;;;;;;16.30;5.40;;;;;;;6.96;100.00;99902.90;104644;1300;23166;-30
2023/01/02 00:40:37;;;;;;;10.20;5.90;;;;;;;6.99;100.00;99904.26;104740;1303;22803;-31
2023/01/02 00:43:02;;;;;;;9.20;5.20;;;;;;;7.00;100.00;99903.77;104671;1292;22657;-31
2023/01/02 00:45:28;;;;;;;7.30;4.80;;;;;;;7.04;100.00;99900.73;104621;1292;22703;-30
2023/01/02 00:47:54;;;;;;;10.10;6.30;;;;;;;7.10;100.00;99900.86;104622;1292;24356;-30
2023/01/02 00:50:20;;;;;;;10.20;5.20;;;;;;;7.16;100.00;99902.48;104752;1294;23002;-34
2023/01/02 00:52:46;;;;;;;8.50;5.70;;;;;;;7.20;100.00;99898.50;104713;1294;23042;-35
2023/01/02 00:55:11;;;;;;;5.90;4.20;;;;;;;7.20;100.00;99894.38;104597;1295;23197;-30
2023/01/02 00:57:37;;;;;;;10.70;5.60;;;;;;;7.19;100.00;99896.05;104631;1292;22660;-29
2023/01/02 01:00:05;;;;;;;8.10;4.60;;;;;;;7.18;100.00;99895.84;104709;1293;22672;-34
2023/01/02 01:02:30;;;;;;;6.40;4.20;;;;;;;7.14;100.00;99897.14;104755;1295;23183;-30
2023/01/02 01:04:57;;;;;;;9.60;5.20;;;;;;;7.11;100.00;99898.70;104716;1287;25296;-30
2023/01/02 01:07:22;;;;;;;5.00;4.20;;;;;;;7.11;100.00;99897.36;104755;1303;22697;-30
2023/01/02 01:09:48;;;;;;;10.30;4.90;;;;;;;7.07;100.00;99897.02;104688;1292;23169;-34
2023/01/02 01:12:14;;;;;;;8.30;4.70;;;;;;;7.05;100.00;99898.73;104647;1299;24245;-35
2023/01/02 01:14:40;;;;;;;5.60;4.10;;;;;;;7.04;100.00;99893.63;104644;1303;22559;-34
2023/01/02 01:17:05;;;;;;;6.80;4.20;;;;;;;7.02;100.00;99896.66;104763;1287;22805;-32
2023/01/02 01:19:32;;;;;;;5.30;3.50;;;;;;;7.01;100.00;99901.73;104659;1288;22802;-35
2023/01/02 01:21:58;;;;;;;6.20;3.50;;;;;;;6.99;100.00;99907.30;104846;1301;24321;-30
2023/01/02 01:24:24;;;;;;;8.70;5.20;;;;;;;6.96;100.00;99905.61;104626;1291;22902;-29
2023/01/02 01:26:49;;;;;;;8.00;4.50;;;;;;;6.94;100.00;99901.37;104655;1293;22980;-30
2023/01/02 01:29:15;;;;;;;6.30;4.20;;;;;;;6.94;100.00;99901.77;104628;1294;23047;-30
2023/01/02 01:31:41;;;;;;;9.20;4.30;;;;;;;6.92;100.00;99895.42;104451;1303;24306;-31
2023/01/02 01:34:07;;;;;;;8.00;4.20;;;;;;;6.92;100.00;99893.75;104616;1294;22826;-34
2023/01/02 01:36:35;;;;;;;10.70;4.80;;;;;;;6.92;100.00;99888.95;104594;1294;22821;-34
2023/01/02 01:39:00;;;;;;;7.00;4.50;;;;;;;6.95;100.00;99884.09;104637;1292;24433;-34
2023/01/02 01:41:26;;;;;;;8.00;5.50;;;;;;;7.00;100.00;99877.66;104603;1301;22666;-32
2023/01/02 01:43:54;;;;;;;7.90;5.30;;;;;;;7.03;100.00;99874.49;104816;1294;24292;-31
2023/01/02 01:46:34;;;;;;;5.10;3.80;;;;;;;7.07;100.00;99869.11;104772;1293;22820;-31
2023/01/02 01:49:26;;;;;;;7.50;3.20;;;;;;;7.11;100.00;99857.27;104689;1288;24427;-35
2023/01/02 01:51:55;;;;;;;8.80;5.00;;;;;;;7.13;100.00;99844.01;104661;1295;22677;-31
2023/01/02 01:54:25;;;;;;;7.90;4.50;;;;;;;7.19;100.00;99842.63;104730;1294;22657;-36
2023/01/02 01:56:54;;;;;;;5.90;3.40;;;;;;;7.26;100.00;99840.33;104406;1303;22888;-33
2023/01/02 01:59:20;;;;;;;6.50;3.70;;;;;;;7.31;100.00;99842.47;104725;1292;22728;-33
2023/01/02 02:01:46;;;;;;;7.80;2.50;;;;;;;7.38;100.00;99839.58;104851;1293;23169;-31
2023/01/02 02:04:12;;;;;;;8.10;4.00;;;;;;;7.44;100.00;99829.30;104790;1295;23173;-30
2023/01/02 02:06:38;;;;;;;5.00;4.50;;;;;;;7.51;100.00;99823.76;104750;1288;24338;-32
2023/01/02 02:09:08;;;;;;;7.40;3.70;;;;;;;7.53;100.00;99822.09;104701;1288;22938;-34
2023/01/02 02:11:35;;;;;;;5.40;3.20;;;;;;;7.54;100.00;99821.48;104665;1294;23002;-30
2023/01/02 02:14:01;;;;;;;6.70;4.00;;;;;;;7.57;100.00;99825.46;104758;1301;24447;-30
2023/01/02 02:16:37;;;;;;;7.80;5.30;;;;;;;7.64;100.00;99824.63;104778;1288;22567;-31
2023/01/02 02:19:23;;;;;;;6.60;3.90;;;;;;;7.61;100.00;99819.75;104635;1294;24347;-30
2023/01/02 02:22:07;;;;;;;16.60;4.30;;;;;;;7.64;100.00;99820.23;104621;1289;24934;-30
2023/01/02 02:24:55;;;;;;;6.70;3.50;;;;;;;7.67;100.00;99818.45;104773;1294;22668;-30
2023/01/02 02:27:45;;;;;;;6.00;4.30;;;;;;;7.66;100.00;99824.27;104583;1293;24420;-34
2023/01/02 02:30:32;;;;;;;7.10;3.50;;;;;;;7.67;100.00;99828.80;104622;1293;23168;-35
2023/01/02 02:33:14;;;;;;;5.80;4.10;;;;;;;7.68;100.00;99826.90;104697;1303;24314;-35
2023/01/02 02:35:48;;;;;;;9.20;3.30;;;;;;;7.72;100.00;99826.84;104679;1290;25313;-34
2023/01/02 02:38:37;;;;;;;5.60;3.50;;;;;;;7.74;100.00;99822.98;104685;1292;23031;-35
2023/01/02 02:41:26;;;;;;;7.30;3.90;;;;;;;7.77;100.00;99821.45;104845;1293;23035;-31
2023/01/02 02:44:04;;;;;;;10.90;4.60;;;;;;;7.82;100.00;99816.80;104634;1292;24606;-31
2023/01/02 02:46:42;;;;;;;5.00;3.20;;;;;;;7.80;100.00;99820.08;104736;1294;22888;-34
2023/01/02 02:49:14;;;;;;;5.10;3.20;;;;;;;7.79;100.00;99816.38;104571;1303;22556;-31
2023/01/02 02:51:49;;;;;;;4.80;3.70;;;;;;;7.78;100.00;99818.45;104652;1297;25779;-35
2023/01/02 02:54:22;;;;;;;6.90;3.70;;;;;;;7.80;100.00;99812.92;104803;1294;22824;-36
2023/01/02 02:56:48;;;;;;;7.00;3.90;;;;;;;7.77;100.00;99818.91;104762;1303;22657;-31
2023/01/02 02:59:14;;;;;;;4.70;2.90;;;;;;;7.77;100.00;99821.65;104724;1292;23041;-31
2023/01/02 03:01:40;;;;;;;5.60;3.40;;;;;;;7.75;100.00;99820.59;104710;1292;22669;-35
2023/01/02 03:04:19;;;;;;;5.70;3.80;;;;;;;7.72;100.00;99819.71;104747;1294;23036;-31
2023/01/02 03:07:00;;;;;;;11.20;5.00;;;;;;;7.69;100.00;99820.48;104670;1293;22666;-34
2023/01/02 03:09:42;;;;;;;5.60;3.30;;;;;;;7.71;100.00;99820.13;104666;1279;22555;-30
2023/01/02 03:12:20;;;;;;;7.50;3.40;;;;;;;7.66;100.00;99822.47;104854;1298;24301;-34
2023/01/02 03:15:10;;;;;;;3.50;2.60;;;;;;;7.64;100.00;99818.27;104565;1303;24523;-35
2023/01/02 03:17:52;;;;;;;5.20;3.20;;;;;;;7.58;100.00;99819.83;104583;1292;22666;-31
2023/01/02 03:20:18;;;;;;;5.20;3.50;;;;;;;7.51;100.00;99819.15;104719;1293;24340;-35
2023/01/02 03:22:47;;;;;;;4.80;3.30;;;;;;;7.49;100.00;99811.87;104720;1288;23054;-35
2023/01/02 03:25:13;;;;;;;7.30;3.50;;;;;;;7.49;100.00;99808.23;104650;1294;22674;-35
2023/01/02 03:27:42;;;;;;;6.70;4.30;;;;;;;7.46;100.00;99804.70;104823;1292;22756;-35
2023/01/02 03:30:11;;;;;;;4.90;3.60;;;;;;;7.43;100.00;99809.76;104740;1292;25420;-31
2023/01/02 03:32:39;;;;;;;11.60;4.80;;;;;;;7.40;100.00;99815.84;104723;1303;24315;-35
2023/01/02 03:35:08;;;;;;;6.30;4.20;;;;;;;7.38;100.00;99822.30;104714;1292;22814;-34
2023/01/02 03:37:34;;;;;;;10.50;6.50;;;;;;;7.39;100.00;99832.66;104594;1293;22653;-31
2023/01/02 03:40:04;;;;;;;6.60;4.50;;;;;;;7.46;100.00;99834.45;104712;1292;22686;-35
2023/01/02 03:42:35;;;;;;;14.20;9.70;;;;;;;7.46;100.00;99822.42;104737;1293;22686;-35
2023/01/02 03:45:07;;;;;;;7.80;5.90;;;;;;;7.46;100.00;99817.67;104625;1294;23928;-35
2023/01/02 03:47:48;;;;;;;7.90;4.30;;;;;;;7.47;100.00;99814.13;104644;1292;23000;-30
2023/01/02 03:50:31;;;;;;;7.80;4.20;;;;;;;7.48;100.00;99811.23;104716;1294;24256;-34
2023/01/02 03:52:57;;;;;;;4.00;2.90;;;;;;;7.55;100.00;99815.44;104595;1292;22672;-35
2023/01/02 03:55:23;;;;;;;5.30;3.60;;;;;;;7.61;100.00;99821.75;104830;1303;23301;-34
2023/01/02 03:58:07;;;;;;;2.90;2.60;;;;;;;7.70;100.00;99821.46;104554;1303;23185;-30
2023/01/02 04:00:53;;;;;;;2.10;1.80;;;;;;;7.78;100.00;99812.60;104636;1294;22799;-34
2023/01/02 04:03:34;;;;;;;5.80;3.70;;;;;;;7.86;100.00;99814.19;104771;1292;24314;-34
2023/01/02 04:06:03;;;;;;;3.70;2.20;;;;;;;7.90;100.00;99805.06;104625;1294;23251;-30
2023/01/02 04:08:36;;;;;;;3.30;2.90;;;;;;;7.94;100.00;99806.23;104647;1292;22761;-34
2023/01/02 04:11:01;;;;;;;6.60;3.20;;;;;;;7.97;100.00;99809.09;104718;1288;22563;-30
2023/01/02 04:13:40;;;;;;;18.90;3.40;;;;;;;7.99;100.00;99807.80;104719;1293;23185;-31
2023/01/02 04:16:09;;;;;;;3.80;2.60;;;;;;;8.00;100.00;99805.38;104801;1300;22556;-35
2023/01/02 04:18:49;;;;;;;6.30;3.10;;;;;;;8.06;100.00;99803.27;104660;1294;22666;-35
2023/01/02 04:21:16;;;;;;;6.30;3.00;;;;;;;8.05;100.00;99801.83;104729;1294;22798;-35
2023/01/02 04:23:45;;;;;;;5.20;2.80;;;;;;;8.03;100.00;99798.39;104762;1293;24327;-31
2023/01/02 04:26:19;;;;;;;4.70;3.00;;;;;;;8.06;100.00;99789.05;104839;1289;24690;-34
2023/01/02 04:28:45;;;;;;;;;;;;;;;8.06;100.00;99779.75;104586;1292;22672;-35
2023/01/02 04:31:19;;;;;;;4.10;2.90;;;;;;;8.04;100.00;99774.04;104555;1292;23131;-35
2023/01/02 04:33:48;;;;;;;6.10;2.90;;;;;;;8.09;100.00;99770.45;104614;1293;22800;-35
2023/01/02 05:14:07;;;;;;;5.40;2.90;;;;;;;8.74;100.00;99750.13;104435;1298;557736;-33
2023/01/02 05:16:32;;;;;;;12.60;2.80;;;;;;;8.76;100.00;99755.23;104180;1296;475114;-33
2023/01/02 05:18:58;;;;;;;5.70;2.90;;;;;;;8.72;100.00;99753.06;104675;1304;22558;-31
2023/01/02 05:23:54;;;;;;;5.60;3.00;;;;;;;8.65;100.00;99757.02;104719;1289;22666;-31
2023/01/02 05:26:20;;;;;;;5.00;4.00;;;;;;;8.61;100.00;99750.38;104748;1292;22862;-33
2023/01/02 05:28:45;;;;;;;5.60;3.20;;;;;;;8.62;100.00;99750.00;104618;1289;22791;-35
2023/01/02 05:31:11;;;;;;;3.40;2.10;;;;;;;8.54;100.00;99746.13;104506;1295;22644;-31
2023/01/02 05:33:37;;;;;;;5.20;2.80;;;;;;;8.48;100.00;99743.28;104676;1292;22556;-32
2023/01/02 05:36:05;;;;;;;3.20;2.80;;;;;;;8.47;100.00;99738.20;104606;1292;22954;-31
2023/01/02 05:38:31;;;;;;;5.40;2.80;;;;;;;8.39;100.00;99737.73;104788;1292;24248;-36
2023/01/02 05:41:04;;;;;;;4.20;3.30;;;;;;;8.37;100.00;99728.27;104663;1292;22983;-35
2023/01/02 05:43:31;;;;;;;4.60;2.70;;;;;;;8.35;100.00;99728.45;104656;1295;22786;-35
2023/01/02 05:45:57;;;;;;;3.20;2.20;;;;;;;8.36;100.00;99722.63;104723;1304;23017;-31
2023/01/02 05:48:23;;;;;;;4.10;3.00;;;;;;;8.38;100.00;99725.45;104782;1295;22779;-29
2023/01/02 05:50:49;;;;;;;4.90;3.00;;;;;;;8.34;100.00;99721.84;104691;1292;22699;-34
2023/01/02 05:53:16;;;;;;;4.20;3.10;;;;;;;8.38;100.00;99719.17;104715;1292;23076;-34
2023/01/02 05:55:42;;;;;;;4.60;3.00;;;;;;;8.39;100.00;99716.63;104581;1292;22956;-34
2023/01/02 05:58:07;;;;;;;4.70;3.50;;;;;;;8.38;100.00;99715.51;104707;1292;22830;-34
2023/01/02 06:00:33;;;;;;;6.10;3.20;;;;;;;8.33;100.00;99715.11;104671;1292;24392;-31
2023/01/02 06:02:59;;;;;;;4.20;3.30;;;;;;;8.30;100.00;99710.81;104523;1295;22660;-31
2023/01/02 06:05:25;;;;;;;4.20;3.10;;;;;;;8.31;100.00;99710.41;104762;1289;24318;-29
2023/01/02 06:07:51;;;;;;;5.30;3.60;;;;;;;8.27;100.00;99714.04;104727;1289;22680;-29
2023/01/02 06:10:16;;;;;;;4.30;3.00;;;;;;;8.28;100.00;99710.02;104446;1304;24316;-32
2023/01/02 06:12:42;;;;;;;3.10;2.20;;;;;;;8.24;100.00;99709.36;104698;1292;23179;-34
2023/01/02 06:15:08;;;;;;;8.20;3.40;;;;;;;8.24;100.00;99709.80;104546;1295;22791;-36
2023/01/02 06:17:34;;;;;;;4.20;2.60;;;;;;;8.30;100.00;99708.00;104603;1304;23079;-33
2023/01/02 06:20:00;;;;;;;13.00;2.70;;;;;;;8.35;100.00;99707.98;104560;1292;22659;-33
2023/01/02 06:22:25;;;;;;;5.40;3.40;;;;;;;8.31;100.00;99709.54;104526;1292;23154;-33
2023/01/02 06:24:51;;;;;;;4.20;2.60;;;;;;;8.36;100.00;99704.94;104534;1292;23038;-29
2023/01/02 06:27:18;;;;;;;5.50;3.40;;;;;;;8.38;100.00;99707.64;104492;1304;22664;-33
2023/01/02 06:29:44;;;;;;;6.00;2.80;;;;;;;8.36;100.00;99706.89;104572;1292;22781;-31
2023/01/02 06:32:09;;;;;;;18.50;3.70;;;;;;;8.32;100.00;99710.50;104551;1304;22563;-29
2023/01/02 06:34:35;;;;;;;3.70;2.80;;;;;;;8.31;100.00;99705.71;104638;1289;22673;-34
2023/01/02 06:37:01;;;;;;;5.70;3.00;;;;;;;8.29;100.00;99709.41;104683;1292;24202;-35
2023/01/02 06:39:28;;;;;;;5.20;3.40;;;;;;;8.24;100.00;99705.65;104597;1304;23303;-29
2023/01/02 06:41:53;;;;;;;5.80;3.40;;;;;;;8.23;100.00;99706.16;104748;1292;22834;-33
2023/01/02 06:44:19;;;;;;;4.30;2.60;;;;;;;8.14;100.00;99701.71;104516;1295;23168;-31
2023/01/02 06:46:45;;;;;;;5.30;3.30;;;;;;;8.07;100.00;99704.88;104645;1289;22668;-35
2023/01/02 06:49:11;;;;;;;7.70;4.30;;;;;;;8.05;100.00;99697.02;104650;1293;22653;-29
2023/01/02 06:51:36;;;;;;;4.20;2.90;;;;;;;8.01;100.00;99698.62;104378;1304;22998;-29
2023/01/02 06:54:02;;;;;;;6.10;4.10;;;;;;;7.98;100.00;99696.52;104602;1304;24237;-33
2023/01/02 06:56:28;;;;;;;9.10;3.70;;;;;;;7.98;100.00;99692.91;104524;1293;22806;-29
2023/01/02 06:58:54;;;;;;;9.20;4.20;;;;;;;7.98;100.00;99693.12;104644;1292;23197;-33
2023/01/02 07:01:20;;;;;;;4.20;3.10;;;;;;;8.04;100.00;99686.48;104583;1292;24272;-33
2023/01/02 07:03:46;;;;;;;5.60;3.20;;;;;;;8.11;100.00;99686.37;104589;1304;22666;-29
2023/01/02 07:06:13;;;;;;;6.00;3.70;;;;;;;8.18;100.00;99679.92;104681;1304;22655;-30
2023/01/02 07:08:40;;;;;;;7.00;3.20;;;;;;;8.22;100.00;99680.71;104575;1295;23948;-35
2023/01/02 07:11:10;;;;;;;6.50;3.20;;;;;;;8.25;100.00;99680.94;104596;1285;24751;-35
2023/01/02 07:13:36;;;;;;;5.60;3.00;;;;;;;8.28;100.00;99678.58;104775;1282;25294;-35
2023/01/02 07:16:03;;;;;;;5.70;3.00;;;;;;;8.31;100.00;99682.55;104546;1304;22555;-35
2023/01/02 07:18:29;;;;;;;9.80;3.30;;;;;;;8.33;100.00;99684.77;104621;1292;23028;-31
2023/01/02 07:20:55;;;;;;;8.90;3.60;;;;;;;8.36;100.00;99687.89;104644;1304;22810;-31
2023/01/02 07:23:21;;;;;;;5.70;3.30;;;;;;;8.40;100.00;99690.80;104581;1295;22584;-31
2023/01/02 07:25:52;;;;;;;12.50;3.20;;;;;;;8.40;100.00;99690.76;104535;1295;22562;-31
2023/01/02 07:28:18;;;;;;;4.00;2.70;;;;;;;8.48;100.00;99690.44;104516;1304;22660;-36
2023/01/02 07:30:44;;;;;;;12.30;3.30;;;;;;;8.52;100.00;99691.59;104599;1292;22663;-35
2023/01/02 07:33:09;;;;;;;6.50;4.90;;;;;;;8.57;100.00;99693.30;104560;1285;22660;-36
2023/01/02 07:35:35;;;;;;;6.40;3.20;;;;;;;8.61;100.00;99702.52;104566;1293;22805;-38
2023/01/02 07:38:01;;;;;;;6.50;3.50;;;;;;;8.69;100.00;99707.86;104543;1285;22787;-30
2023/01/02 07:40:27;;;;;;;3.80;2.90;;;;;;;8.83;100.00;99706.69;104568;1289;22648;-31
2023/01/02 07:42:53;;;;;;;7.90;4.40;;;;;;;8.88;100.00;99711.64;104592;1304;22557;-35
2023/01/02 07:45:19;;;;;;;5.60;3.10;;;;;;;8.90;100.00;99709.83;104477;1295;22801;-31
2023/01/02 07:47:45;;;;;;;5.80;3.20;;;;;;;9.01;100.00;99707.00;104511;1293;22817;-35
2023/01/02 07:50:10;;;;;;;5.10;3.20;;;;;;;9.02;100.00;99704.42;104511;1293;22800;-31
2023/01/02 07:52:36;;;;;;;6.60;2.70;;;;;;;9.06;100.00;99705.65;104542;1301;22791;-31
2023/01/02 07:55:02;;;;;;;4.70;2.70;;;;;;;9.11;100.00;99697.39;104659;1285;23157;-35
2023/01/02 07:57:30;;;;;;;4.80;2.70;;;;;;;9.14;100.00;99695.86;104555;1289;22574;-31
2023/01/02 07:59:56;;;;;;;4.70;3.70;;;;;;;9.22;100.00;99693.93;104575;1295;23159;-31
2023/01/02 08:02:22;;;;;;;4.80;3.00;;;;;;;9.25;100.00;99699.02;104603;1292;22576;-31
2023/01/02 08:04:47;;;;;;;5.60;2.90;;;;;;;9.29;100.00;99695.09;104674;1285;22631;-36
2023/01/02 08:07:13;;;;;;;5.10;3.10;;;;;;;9.35;100.00;99702.04;104612;1292;23150;-31
2023/01/02 08:09:39;;;;;;;3.70;2.20;;;;;;;9.38;100.00;99694.08;104593;1292;22669;-33
2023/01/02 08:12:05;;;;;;;5.10;3.50;;;;;;;9.44;100.00;99690.83;104556;1294;22556;-30
2023/01/02 08:14:31;;;;;;;4.90;3.40;;;;;;;9.48;100.00;99685.74;104641;1304;23909;-34
2023/01/02 08:16:56;;;;;;;11.90;5.60;;;;;;;9.53;100.00;99686.36;104532;1288;22809;-35
2023/01/02 08:19:22;;;;;;;4.50;2.90;;;;;;;9.59;100.00;99680.17;104461;1295;23020;-35
2023/01/02 08:21:48;;;;;;;6.80;2.70;;;;;;;9.64;100.00;99680.21;104533;1295;22679;-35
2023/01/02 08:24:14;;;;;;;6.40;2.90;;;;;;;9.73;100.00;99682.70;104566;1304;22719;-31
2023/01/02 08:26:39;;;;;;;4.90;3.10;;;;;;;9.77;100.00;99687.23;104497;1304;23012;-34
2023/01/02 08:29:07;;;;;;;4.30;3.20;;;;;;;9.83;100.00;99685.10;104666;1289;22671;-34
2023/01/02 08:31:33;;;;;;;3.40;2.60;;;;;;;9.95;100.00;99683.12;104608;1284;22796;-31
2023/01/02 08:33:59;;;;;;;5.10;3.00;;;;;;;10.07;100.00;99674.13;104643;1304;22677;-35
2023/01/02 08:36:25;;;;;;;4.30;2.70;;;;;;;10.29;99.71;99674.88;104509;1304;23034;-31
2023/01/02 08:38:51;;;;;;;3.60;2.70;;;;;;;10.40;99.18;99673.94;104688;1292;23283;-35
2023/01/02 08:41:30;;;;;;;5.00;2.70;;;;;;;10.49;99.30;99676.73;104659;1292;23165;-34
2023/01/02 08:43:56;;;;;;;7.10;3.30;;;;;;;10.58;98.34;99675.30;104554;1304;23038;-32
2023/01/02 08:46:21;;;;;;;8.20;3.00;;;;;;;10.67;98.24;99676.64;104537;1292;23161;-36
2023/01/02 08:48:47;;;;;;;5.00;2.10;;;;;;;10.77;97.35;99675.13;104492;1298;22662;-35
2023/01/02 08:51:13;;;;;;;4.20;2.20;;;;;;;10.85;96.54;99676.61;104539;1294;22810;-35
2023/01/02 08:53:39;;;;;;;4.40;2.60;;;;;;;10.93;96.05;99682.86;104447;1304;22815;-35
2023/01/02 08:56:12;;;;;;;4.80;2.80;;;;;;;11.01;95.36;99683.68;104545;1295;23295;-35
2023/01/02 08:58:39;;;;;;;3.10;2.10;;;;;;;11.08;94.62;99686.93;104588;1292;24746;-36
2023/01/02 09:01:04;;;;;;;4.10;2.30;;;;;;;11.13;94.15;99686.68;104595;1295;22779;-31
2023/01/02 09:03:30;;;;;;;3.30;2.20;;;;;;;11.21;94.12;99687.08;104609;1304;24218;-35
2023/01/02 09:05:56;;;;;;;2.60;1.90;;;;;;;11.26;93.84;99689.98;104587;1288;22791;-35
2023/01/02 09:08:21;;;;;;;8.40;2.20;;;;;;;11.29;93.43;99686.54;104568;1304;22644;-31
2023/01/02 09:10:47;;;;;;;4.10;2.50;;;;;;;11.33;93.34;99693.52;104567;1304;23042;-30
2023/01/02 09:13:13;;;;;;;3.40;1.90;;;;;;;11.44;92.80;99691.95;104662;1304;22758;-32
2023/01/02 09:15:43;;;;;;;4.30;3.10;;;;;;;11.53;91.98;99693.83;104684;1304;22804;-32
2023/01/02 09:18:09;;;;;;;4.40;2.70;;;;;;;11.72;91.12;99692.15;104624;1292;22745;-32
2023/01/02 09:20:39;;;;;;;8.50;2.80;;;;;;;11.83;90.63;99697.08;104561;1301;22638;-32
2023/01/02 09:23:04;;;;;;;2.80;1.80;;;;;;;12.05;90.64;99700.73;104545;1292;24775;-32
2023/01/02 09:25:30;;;;;;;3.50;2.20;;;;;;;12.25;88.80;99704.83;104553;1304;25453;-30
2023/01/02 09:27:56;;;;;;;3.30;2.20;;;;;;;12.33;88.33;99703.75;104629;1295;23028;-32
2023/01/02 09:30:22;;;;;;;4.50;2.20;;;;;;;12.36;87.96;99700.27;104624;1295;26685;-36
2023/01/02 09:32:49;;;;;;;3.90;2.30;;;;;;;12.50;87.28;99695.11;104561;1304;22567;-36
2023/01/02 09:35:15;;;;;;;2.60;1.80;;;;;;;12.65;87.07;99698.56;104673;1285;24274;-35
2023/01/02 09:37:41;;;;;;;3.30;2.90;;;;;;;12.69;85.96;99692.73;104539;1292;22756;-33
2023/01/02 09:40:07;;;;;;;2.80;1.60;;;;;;;12.78;85.02;99693.13;104557;1292;22888;-35
2023/01/02 09:42:33;;;;;;;2.10;1.40;;;;;;;12.92;83.92;99695.08;104583;1294;23103;-35
2023/01/02 09:45:01;;;;;;;4.00;1.80;;;;;;;12.96;83.18;99689.77;104553;1304;23159;-31
2023/01/02 09:47:28;;;;;;;4.50;2.90;;;;;;;12.97;82.93;99684.73;104578;1283;23041;-34
2023/01/02 09:49:55;;;;;;;3.00;2.00;;;;;;;13.06;82.72;99676.91;104599;1304;24347;-31
2023/01/02 09:52:31;;;;;;;3.80;1.90;;;;;;;13.32;82.56;99670.77;104627;1298;22653;-32
2023/01/02 09:54:57;;;;;;;3.10;1.50;;;;;;;13.46;81.24;99674.64;104629;1292;22674;-35
2023/01/02 09:57:39;;;;;;;3.90;2.60;;;;;;;13.48;80.27;99674.30;104789;1304;22669;-35
2023/01/02 10:00:11;;;;;;;4.00;2.70;;;;;;;13.39;80.59;99669.91;104522;1293;22660;-36
2023/01/02 10:03:01;;;;;;;2.50;1.50;;;;;;;13.55;78.92;99663.13;104514;1304;22671;-33
2023/01/02 10:05:37;;;;;;;2.40;1.90;;;;;;;13.59;79.34;99662.21;104544;1292;24222;-34
2023/01/02 10:08:26;;;;;;;4.50;2.40;;;;;;;13.64;78.54;99662.79;104504;1295;22563;-34
2023/01/02 10:11:19;;;;;;;3.70;2.10;;;;;;;13.62;79.48;99662.16;104560;1285;22805;-34
2023/01/02 10:14:00;;;;;;;4.20;2.40;;;;;;;13.52;78.37;99653.21;104558;1292;24299;-31
2023/01/02 10:16:30;;;;;;;4.60;2.30;;;;;;;13.48;78.06;99651.73;104545;1295;24308;-34
2023/01/02 10:18:57;;;;;;;3.20;2.20;;;;;;;13.41;78.34;99651.80;104576;1295;23050;-35
2023/01/02 10:21:35;;;;;;;4.10;3.70;;;;;;;13.27;78.76;99647.29;104598;1299;25291;-32
2023/01/02 10:24:17;;;;;;;3.40;2.30;;;;;;;13.23;78.90;99639.05;104574;1289;24293;-31
2023/01/02 10:26:46;;;;;;;11.50;2.90;;;;;;;13.29;79.76;99640.28;104597;1304;22631;-35
2023/01/02 10:29:14;;;;;;;4.40;2.80;;;;;;;13.58;80.11;99641.66;104571;1292;22656;-31
2023/01/02 10:31:49;;;;;;;4.40;2.70;;;;;;;14.05;78.49;99638.97;104522;1304;22692;-35
2023/01/02 10:34:17;;;;;;;3.90;2.20;;;;;;;14.47;76.87;99637.54;104536;1304;25537;-35
2023/01/02 10:36:43;;;;;;;4.20;2.20;;;;;;;14.95;74.69;99631.05;104545;1304;22566;-35
2023/01/02 10:39:16;;;;;;;2.90;2.10;;;;;;;15.23;73.38;99628.40;104570;1292;22708;-35
2023/01/02 10:41:55;;;;;;;3.10;2.00;;;;;;;15.65;72.96;99621.96;104593;1285;23827;-32
2023/01/02 10:44:27;;;;;;;3.60;2.30;;;;;;;15.93;69.48;99618.02;104543;1288;22663;-32
2023/01/02 10:46:53;;;;;;;4.10;2.20;;;;;;;15.95;69.66;99611.09;104597;1292;22899;-32
2023/01/02 10:49:19;;;;;;;4.90;2.30;;;;;;;16.00;67.66;99608.35;104537;1292;22562;-32
2023/01/02 10:51:49;;;;;;;4.20;2.30;;;;;;;15.93;68.06;99609.35;104573;1289;24263;-38
2023/01/02 10:54:15;;;;;;;4.40;2.40;;;;;;;16.16;67.09;99600.86;104517;1304;24183;-36
2023/01/02 10:56:47;;;;;;;15.60;2.10;;;;;;;16.33;67.00;99598.00;104445;1298;22571;-36
2023/01/02 10:59:19;;;;;;;3.90;1.50;;;;;;;16.40;67.48;99591.70;104573;1292;23157;-33
2023/01/02 11:01:50;;;;;;;2.90;2.10;;;;;;;16.57;66.03;99593.30;104626;1292;22663;-37
2023/01/02 11:45:46;;;;;;;6.70;4.40;;;;;;;15.21;75.00;99608.52;104322;1298;557624;-31
2023/01/02 11:48:17;;;;;;;5.30;3.40;;;;;;;15.90;72.63;99605.63;104282;1303;397592;-35
2023/01/02 11:50:43;;;;;;;5.90;2.80;;;;;;;15.88;69.83;99599.45;104627;1303;22676;-31
2023/01/02 11:53:17;;;;;;;4.40;2.80;;;;;;;15.83;70.32;99600.80;104696;1300;22827;-34
2023/01/02 11:55:57;;;;;;;4.50;3.00;;;;;;;16.09;69.42;99601.30;104585;1294;24320;-31
2023/01/02 11:58:55;;;;;;;4.40;2.70;;;;;;;16.55;68.82;99603.70;104585;1294;22562;-35
2023/01/02 12:01:29;;;;;;;3.80;2.50;;;;;;;16.86;66.70;99613.29;104546;1294;22831;-36
2023/01/02 12:03:55;;;;;;;3.50;3.00;;;;;;;16.90;64.91;99608.18;104614;1303;22651;-33
2023/01/02 12:06:29;;;;;;;4.70;3.20;;;;;;;16.69;64.35;99615.10;104763;1301;24318;-33
2023/01/02 12:09:10;;;;;;;12.10;4.60;;;;;;;16.55;64.95;99615.48;104621;1294;22569;-36
2023/01/02 12:12:08;;;;;;;3.50;2.60;;;;;;;16.45;65.21;99619.38;104562;1303;23053;-33
2023/01/02 12:14:57;;;;;;;4.90;2.70;;;;;;;16.30;65.06;99626.95;104593;1294;22657;-32
2023/01/02 12:17:47;;;;;;;4.60;3.10;;;;;;;16.29;65.60;99625.88;104512;1292;22576;-36
2023/01/02 12:20:27;;;;;;;4.00;3.20;;;;;;;16.20;66.32;99630.08;104619;1295;23173;-36
2023/01/02 12:23:24;;;;;;;4.60;3.10;;;;;;;16.30;65.98;99627.44;104521;1301;22824;-32
2023/01/02 12:25:59;;;;;;;3.00;2.30;;;;;;;16.36;66.49;99621.74;104658;1292;22562;-36
2023/01/02 12:28:48;;;;;;;3.70;2.80;;;;;;;16.28;65.75;99624.55;104584;1292;22563;-33
2023/01/02 12:31:38;;;;;;;4.60;2.70;;;;;;;16.35;65.75;99628.88;104584;1300;22663;-31
2023/01/02 12:34:32;;;;;;;3.40;2.80;;;;;;;16.34;64.85;99631.27;104625;1303;22656;-31
2023/01/02 12:37:22;;;;;;;6.60;2.80;;;;;;;16.18;65.69;99637.98;104539;1297;23171;-31
2023/01/02 12:40:09;;;;;;;5.40;3.70;;;;;;;16.26;64.19;99627.08;104546;1300;22616;-35
2023/01/02 12:42:55;;;;;;;5.30;4.10;;;;;;;15.94;65.05;99622.84;104589;1296;22566;-31
2023/01/02 12:45:43;;;;;;;4.00;3.20;;;;;;;15.92;65.65;99617.70;104711;1303;22604;-31
2023/01/02 12:48:22;;;;;;;7.80;3.70;;;;;;;15.76;65.97;99612.76;104542;1303;22784;-31
2023/01/02 12:51:03;;;;;;;4.80;3.10;;;;;;;15.72;66.63;99599.54;104560;1285;22566;-31
2023/01/02 12:53:46;;;;;;;3.30;2.60;;;;;;;15.72;66.53;99592.75;104495;1303;22790;-32
2023/01/02 12:56:31;;;;;;;5.20;3.50;;;;;;;15.69;67.38;99576.37;104532;1300;25900;-31
2023/01/02 12:59:21;;;;;;;5.90;3.60;;;;;;;15.87;66.91;99572.78;104591;1294;24307;-32
2023/01/02 13:02:01;;;;;;;5.80;4.00;;;;;;;15.92;66.11;99567.77;104603;1301;22818;-35